Gillette Campbell County Airport
KGCC : now visible

Airfield :











YOU CAN JOIN US ON...

 
LOGIN :

Register | Disclaimer

   EN    FR    IT 

 









Legend :    VFR   Marginal VFR   IFR   Intensive IFR   Very Intensive IFR
Visi :
Ceiling :
>= 8 km
>= 3000ft
5 to 8 km
1000 to 3000 ft
1500m to 5 km
500 to 1000 ft
800 to 1500m
200 to 500 ft
< 800m
< 200 ft
Symbols :   Thunderstorms  Fog  Heavy snow  Heavy precipitations  Wind > 20 kt






- Airport Elevation : 4365 ft


KGCC - Gillette Campbell County

CURRENT METAR :
  • 220753Z AUTO 18005KT 10SM CLR 12/10 A3001 RMK AO2 SLP128 T01220100 $

EXPIRED METARs :
  • 220653Z AUTO 22009KT 10SM CLR 13/11 A3003 RMK AO2 SLP135 T01280111 402560117 $
  • 220553Z AUTO 27010KT 10SM CLR 14/12 A3006 RMK AO2 SLP143 60054 T01390117 10228 20117 50018 $
  • 220453Z AUTO 30011KT 10SM CLR 14/12 A3007 RMK AO2 SLP148 T01390117 $
  • 220353Z AUTO 11009G20KT 10SM CLR 16/12 A3004 RMK AO2 SLP139 T01560117 $

TAF KGCC
Valid from the 22 at 08:00 until the 23 at 06:00 UTC


220747Z 2208/2306 21010KT P6SM SCT250
FM221800 33010KT P6SM SCT150
KZDV FIR / North America



MET'MAP, your aeronautical weather chart ! - Copyright ORBIFLY December 2007 - Disclaimer

ORBIFLY MET'MAP TEAM :

Programming & Development : Alexandra Zaïnal
Original concept : Baudouin d'Aumeries
Technical & hardware support : Manuel Goepfert
Assistance : Marc-Olivier Méhu




SOURCES & CREDITS :

   NOAA       Earth
Advisory